sensor_id;sensor_type;location;lat;lon;timestamp;P1;durP1;ratioP1;P2;durP2;ratioP2
25569;SDS011;17955;45.542;9.238;2023-03-30T00:01:02;12.32;;;3.28;;
25569;SDS011;17955;45.542;9.238;2023-03-30T00:03:29;9.98;;;3.15;;
25569;SDS011;17955;45.542;9.238;2023-03-30T00:06:02;22.98;;;3.00;;
25569;SDS011;17955;45.542;9.238;2023-03-30T00:08:30;12.38;;;3.17;;
25569;SDS011;17955;45.542;9.238;2023-03-30T00:11:00;7.65;;;3.25;;
25569;SDS011;17955;45.542;9.238;2023-03-30T00:13:28;7.53;;;2.72;;
25569;SDS011;17955;45.542;9.238;2023-03-30T00:15:56;9.75;;;3.00;;
25569;SDS011;17955;45.542;9.238;2023-03-30T00:18:23;9.18;;;3.28;;
25569;SDS011;17955;45.542;9.238;2023-03-30T00:20:50;10.43;;;3.25;;
25569;SDS011;17955;45.542;9.238;2023-03-30T00:23:19;8.38;;;3.05;;
25569;SDS011;17955;45.542;9.238;2023-03-30T00:25:46;6.00;;;2.65;;
25569;SDS011;17955;45.542;9.238;2023-03-30T00:28:14;11.30;;;3.10;;
25569;SDS011;17955;45.542;9.238;2023-03-30T00:30:41;7.70;;;2.85;;
25569;SDS011;17955;45.542;9.238;2023-03-30T00:33:09;9.48;;;2.58;;
25569;SDS011;17955;45.542;9.238;2023-03-30T00:35:36;10.20;;;3.30;;
25569;SDS011;17955;45.542;9.238;2023-03-30T00:38:03;9.38;;;3.13;;
25569;SDS011;17955;45.542;9.238;2023-03-30T00:40:32;9.05;;;2.63;;
25569;SDS011;17955;45.542;9.238;2023-03-30T00:43:01;8.70;;;2.90;;
25569;SDS011;17955;45.542;9.238;2023-03-30T00:45:28;9.45;;;2.88;;
25569;SDS011;17955;45.542;9.238;2023-03-30T00:47:58;7.03;;;2.78;;
25569;SDS011;17955;45.542;9.238;2023-03-30T00:50:26;7.82;;;2.78;;
25569;SDS011;17955;45.542;9.238;2023-03-30T00:52:59;10.40;;;3.35;;
25569;SDS011;17955;45.542;9.238;2023-03-30T00:55:27;12.77;;;2.72;;
25569;SDS011;17955;45.542;9.238;2023-03-30T00:57:57;7.93;;;2.47;;
25569;SDS011;17955;45.542;9.238;2023-03-30T01:00:25;9.38;;;2.92;;
25569;SDS011;17955;45.542;9.238;2023-03-30T01:02:53;7.57;;;2.75;;
25569;SDS011;17955;45.542;9.238;2023-03-30T01:05:23;8.68;;;3.17;;
25569;SDS011;17955;45.542;9.238;2023-03-30T01:07:50;8.93;;;2.95;;
25569;SDS011;17955;45.542;9.238;2023-03-30T01:10:18;7.47;;;2.60;;
25569;SDS011;17955;45.542;9.238;2023-03-30T01:12:46;7.05;;;2.80;;
25569;SDS011;17955;45.542;9.238;2023-03-30T01:15:14;5.55;;;2.65;;
25569;SDS011;17955;45.542;9.238;2023-03-30T01:17:48;11.68;;;2.88;;
25569;SDS011;17955;45.542;9.238;2023-03-30T01:20:33;11.45;;;3.38;;
25569;SDS011;17955;45.542;9.238;2023-03-30T01:23:08;6.78;;;2.42;;
25569;SDS011;17955;45.542;9.238;2023-03-30T01:25:47;10.20;;;2.65;;
25569;SDS011;17955;45.542;9.238;2023-03-30T01:28:24;11.55;;;2.55;;
25569;SDS011;17955;45.542;9.238;2023-03-30T01:31:02;9.50;;;2.83;;
25569;SDS011;17955;45.542;9.238;2023-03-30T01:33:45;6.35;;;2.80;;
25569;SDS011;17955;45.542;9.238;2023-03-30T01:36:26;11.40;;;2.90;;
25569;SDS011;17955;45.542;9.238;2023-03-30T01:39:05;7.88;;;2.75;;
25569;SDS011;17955;45.542;9.238;2023-03-30T01:41:35;8.75;;;2.78;;
25569;SDS011;17955;45.542;9.238;2023-03-30T01:44:06;10.77;;;3.00;;
25569;SDS011;17955;45.542;9.238;2023-03-30T01:46:38;10.68;;;2.42;;
25569;SDS011;17955;45.542;9.238;2023-03-30T01:49:08;9.35;;;2.78;;
25569;SDS011;17955;45.542;9.238;2023-03-30T01:51:40;12.43;;;3.00;;
25569;SDS011;17955;45.542;9.238;2023-03-30T01:54:11;17.27;;;2.70;;
25569;SDS011;17955;45.542;9.238;2023-03-30T01:56:40;8.73;;;3.08;;
25569;SDS011;17955;45.542;9.238;2023-03-30T01:59:10;11.10;;;3.10;;
25569;SDS011;17955;45.542;9.238;2023-03-30T02:01:38;11.73;;;2.97;;
25569;SDS011;17955;45.542;9.238;2023-03-30T02:04:08;6.95;;;2.78;;
25569;SDS011;17955;45.542;9.238;2023-03-30T02:06:37;9.63;;;2.83;;
25569;SDS011;17955;45.542;9.238;2023-03-30T02:09:08;8.00;;;2.67;;
25569;SDS011;17955;45.542;9.238;2023-03-30T02:11:38;8.10;;;2.67;;
25569;SDS011;17955;45.542;9.238;2023-03-30T02:14:07;7.72;;;2.90;;
25569;SDS011;17955;45.542;9.238;2023-03-30T02:16:37;12.85;;;2.90;;
25569;SDS011;17955;45.542;9.238;2023-03-30T02:19:07;9.20;;;2.70;;
25569;SDS011;17955;45.542;9.238;2023-03-30T02:21:34;7.32;;;2.65;;
25569;SDS011;17955;45.542;9.238;2023-03-30T02:24:03;4.40;;;2.45;;
25569;SDS011;17955;45.542;9.238;2023-03-30T02:26:31;8.40;;;2.67;;
25569;SDS011;17955;45.542;9.238;2023-03-30T02:29:01;13.48;;;3.00;;
25569;SDS011;17955;45.542;9.238;2023-03-30T02:31:28;8.57;;;2.53;;
25569;SDS011;17955;45.542;9.238;2023-03-30T02:34:01;7.45;;;2.38;;
25569;SDS011;17955;45.542;9.238;2023-03-30T02:36:43;9.40;;;2.90;;
25569;SDS011;17955;45.542;9.238;2023-03-30T02:39:19;9.82;;;2.83;;
25569;SDS011;17955;45.542;9.238;2023-03-30T02:41:59;8.20;;;2.92;;
25569;SDS011;17955;45.542;9.238;2023-03-30T02:44:30;9.52;;;2.58;;
25569;SDS011;17955;45.542;9.238;2023-03-30T02:47:01;6.25;;;2.17;;
25569;SDS011;17955;45.542;9.238;2023-03-30T02:49:34;5.07;;;1.98;;
25569;SDS011;17955;45.542;9.238;2023-03-30T02:52:06;11.65;;;3.47;;
25569;SDS011;17955;45.542;9.238;2023-03-30T02:54:43;9.15;;;3.25;;
25569;SDS011;17955;45.542;9.238;2023-03-30T02:57:19;7.30;;;2.60;;
25569;SDS011;17955;45.542;9.238;2023-03-30T02:59:55;6.82;;;2.70;;
25569;SDS011;17955;45.542;9.238;2023-03-30T03:02:26;7.00;;;2.50;;
25569;SDS011;17955;45.542;9.238;2023-03-30T03:05:04;9.07;;;3.03;;
25569;SDS011;17955;45.542;9.238;2023-03-30T03:08:05;6.60;;;2.53;;
25569;SDS011;17955;45.542;9.238;2023-03-30T03:10:32;11.95;;;2.85;;
25569;SDS011;17955;45.542;9.238;2023-03-30T03:13:01;6.82;;;2.55;;
25569;SDS011;17955;45.542;9.238;2023-03-30T03:15:30;6.57;;;2.10;;
25569;SDS011;17955;45.542;9.238;2023-03-30T03:18:06;5.45;;;2.30;;
25569;SDS011;17955;45.542;9.238;2023-03-30T03:20:34;5.72;;;2.60;;
25569;SDS011;17955;45.542;9.238;2023-03-30T03:23:02;6.05;;;2.80;;
25569;SDS011;17955;45.542;9.238;2023-03-30T03:25:37;5.20;;;2.47;;
25569;SDS011;17955;45.542;9.238;2023-03-30T03:28:06;15.50;;;3.00;;
25569;SDS011;17955;45.542;9.238;2023-03-30T03:30:40;12.48;;;3.28;;
25569;SDS011;17955;45.542;9.238;2023-03-30T03:33:13;9.45;;;3.15;;
25569;SDS011;17955;45.542;9.238;2023-03-30T03:35:46;5.32;;;2.45;;
25569;SDS011;17955;45.542;9.238;2023-03-30T03:38:19;7.90;;;2.60;;
25569;SDS011;17955;45.542;9.238;2023-03-30T03:40:48;8.05;;;2.95;;
25569;SDS011;17955;45.542;9.238;2023-03-30T03:43:16;8.50;;;3.00;;
25569;SDS011;17955;45.542;9.238;2023-03-30T03:45:45;6.55;;;2.75;;
25569;SDS011;17955;45.542;9.238;2023-03-30T03:48:12;10.98;;;2.70;;
25569;SDS011;17955;45.542;9.238;2023-03-30T03:50:51;12.00;;;3.20;;
25569;SDS011;17955;45.542;9.238;2023-03-30T03:53:19;9.30;;;3.10;;
25569;SDS011;17955;45.542;9.238;2023-03-30T03:55:49;11.18;;;3.28;;
25569;SDS011;17955;45.542;9.238;2023-03-30T03:58:17;8.75;;;2.40;;
25569;SDS011;17955;45.542;9.238;2023-03-30T04:00:46;6.70;;;2.53;;
25569;SDS011;17955;45.542;9.238;2023-03-30T04:03:13;7.75;;;2.50;;
25569;SDS011;17955;45.542;9.238;2023-03-30T04:05:41;9.90;;;2.85;;
25569;SDS011;17955;45.542;9.238;2023-03-30T04:08:08;6.25;;;2.47;;
25569;SDS011;17955;45.542;9.238;2023-03-30T04:10:36;7.30;;;2.30;;
25569;SDS011;17955;45.542;9.238;2023-03-30T04:13:22;7.60;;;2.33;;
25569;SDS011;17955;45.542;9.238;2023-03-30T04:16:07;5.25;;;2.08;;
25569;SDS011;17955;45.542;9.238;2023-03-30T04:18:53;6.25;;;2.13;;
25569;SDS011;17955;45.542;9.238;2023-03-30T04:21:34;10.98;;;2.90;;
25569;SDS011;17955;45.542;9.238;2023-03-30T04:24:25;13.98;;;2.90;;
25569;SDS011;17955;45.542;9.238;2023-03-30T04:27:19;11.30;;;2.47;;
25569;SDS011;17955;45.542;9.238;2023-03-30T04:30:09;13.32;;;2.47;;
25569;SDS011;17955;45.542;9.238;2023-03-30T04:32:56;9.63;;;3.45;;
25569;SDS011;17955;45.542;9.238;2023-03-30T04:35:47;9.57;;;3.38;;
25569;SDS011;17955;45.542;9.238;2023-03-30T04:38:46;9.05;;;3.40;;
25569;SDS011;17955;45.542;9.238;2023-03-30T04:41:41;12.25;;;4.32;;
25569;SDS011;17955;45.542;9.238;2023-03-30T04:44:23;15.25;;;4.75;;
25569;SDS011;17955;45.542;9.238;2023-03-30T04:47:03;10.48;;;4.25;;
25569;SDS011;17955;45.542;9.238;2023-03-30T04:49:53;14.40;;;3.53;;
25569;SDS011;17955;45.542;9.238;2023-03-30T04:52:40;9.27;;;3.20;;
25569;SDS011;17955;45.542;9.238;2023-03-30T04:55:26;9.73;;;2.47;;
25569;SDS011;17955;45.542;9.238;2023-03-30T04:58:08;8.60;;;2.65;;
25569;SDS011;17955;45.542;9.238;2023-03-30T05:00:58;5.15;;;2.05;;
25569;SDS011;17955;45.542;9.238;2023-03-30T05:03:44;6.82;;;2.10;;
25569;SDS011;17955;45.542;9.238;2023-03-30T05:06:46;4.97;;;2.20;;
25569;SDS011;17955;45.542;9.238;2023-03-30T05:09:14;9.35;;;2.40;;
25569;SDS011;17955;45.542;9.238;2023-03-30T05:12:05;12.85;;;2.67;;
25569;SDS011;17955;45.542;9.238;2023-03-30T05:15:01;6.53;;;2.67;;
25569;SDS011;17955;45.542;9.238;2023-03-30T05:17:58;8.23;;;2.55;;
25569;SDS011;17955;45.542;9.238;2023-03-30T05:20:44;7.88;;;2.85;;
25569;SDS011;17955;45.542;9.238;2023-03-30T05:23:25;5.20;;;2.75;;
25569;SDS011;17955;45.542;9.238;2023-03-30T05:26:11;9.00;;;2.63;;
25569;SDS011;17955;45.542;9.238;2023-03-30T05:28:55;8.30;;;2.80;;
25569;SDS011;17955;45.542;9.238;2023-03-30T05:31:33;9.63;;;2.67;;
25569;SDS011;17955;45.542;9.238;2023-03-30T05:34:19;8.43;;;2.40;;
25569;SDS011;17955;45.542;9.238;2023-03-30T05:36:52;6.93;;;3.30;;
25569;SDS011;17955;45.542;9.238;2023-03-30T05:39:39;6.57;;;2.33;;
25569;SDS011;17955;45.542;9.238;2023-03-30T05:42:30;6.35;;;3.42;;
25569;SDS011;17955;45.542;9.238;2023-03-30T05:45:06;6.00;;;2.90;;
25569;SDS011;17955;45.542;9.238;2023-03-30T05:48:01;6.80;;;2.72;;
25569;SDS011;17955;45.542;9.238;2023-03-30T05:50:41;5.65;;;2.90;;
25569;SDS011;17955;45.542;9.238;2023-03-30T05:53:18;8.63;;;3.15;;
25569;SDS011;17955;45.542;9.238;2023-03-30T05:56:02;12.55;;;2.85;;
25569;SDS011;17955;45.542;9.238;2023-03-30T05:58:54;7.00;;;2.72;;
25569;SDS011;17955;45.542;9.238;2023-03-30T06:01:48;6.05;;;2.63;;
25569;SDS011;17955;45.542;9.238;2023-03-30T06:04:16;8.02;;;2.80;;
25569;SDS011;17955;45.542;9.238;2023-03-30T06:06:43;10.40;;;2.75;;
25569;SDS011;17955;45.542;9.238;2023-03-30T06:09:10;11.43;;;3.20;;
25569;SDS011;17955;45.542;9.238;2023-03-30T06:11:39;8.73;;;2.58;;
25569;SDS011;17955;45.542;9.238;2023-03-30T06:14:17;10.93;;;2.92;;
25569;SDS011;17955;45.542;9.238;2023-03-30T06:17:12;10.68;;;3.13;;
25569;SDS011;17955;45.542;9.238;2023-03-30T06:19:41;13.57;;;3.83;;
25569;SDS011;17955;45.542;9.238;2023-03-30T06:22:08;6.68;;;3.10;;
25569;SDS011;17955;45.542;9.238;2023-03-30T06:24:50;12.63;;;4.00;;
25569;SDS011;17955;45.542;9.238;2023-03-30T06:27:20;7.47;;;3.58;;
25569;SDS011;17955;45.542;9.238;2023-03-30T06:29:48;13.52;;;3.90;;
25569;SDS011;17955;45.542;9.238;2023-03-30T06:32:15;10.55;;;3.78;;
25569;SDS011;17955;45.542;9.238;2023-03-30T06:35:01;10.27;;;3.67;;
25569;SDS011;17955;45.542;9.238;2023-03-30T06:37:29;8.75;;;3.60;;
25569;SDS011;17955;45.542;9.238;2023-03-30T06:39:57;6.68;;;3.15;;
25569;SDS011;17955;45.542;9.238;2023-03-30T06:42:26;10.30;;;3.83;;
25569;SDS011;17955;45.542;9.238;2023-03-30T06:45:09;10.32;;;4.10;;
25569;SDS011;17955;45.542;9.238;2023-03-30T06:47:37;13.82;;;4.88;;
25569;SDS011;17955;45.542;9.238;2023-03-30T06:50:06;11.70;;;3.97;;
25569;SDS011;17955;45.542;9.238;2023-03-30T06:52:53;6.35;;;3.47;;
25569;SDS011;17955;45.542;9.238;2023-03-30T06:55:21;11.82;;;3.70;;
25569;SDS011;17955;45.542;9.238;2023-03-30T06:57:50;9.65;;;4.05;;
25569;SDS011;17955;45.542;9.238;2023-03-30T07:00:18;11.65;;;3.40;;
25569;SDS011;17955;45.542;9.238;2023-03-30T07:03:08;10.60;;;3.20;;
25569;SDS011;17955;45.542;9.238;2023-03-30T07:05:56;10.23;;;3.10;;
25569;SDS011;17955;45.542;9.238;2023-03-30T07:08:34;10.10;;;3.25;;
25569;SDS011;17955;45.542;9.238;2023-03-30T07:11:03;8.43;;;3.05;;
25569;SDS011;17955;45.542;9.238;2023-03-30T07:13:35;7.47;;;3.30;;
25569;SDS011;17955;45.542;9.238;2023-03-30T07:16:02;10.23;;;3.60;;
25569;SDS011;17955;45.542;9.238;2023-03-30T07:18:31;7.65;;;3.05;;
25569;SDS011;17955;45.542;9.238;2023-03-30T07:20:58;8.98;;;2.60;;
25569;SDS011;17955;45.542;9.238;2023-03-30T07:23:31;10.02;;;2.67;;
25569;SDS011;17955;45.542;9.238;2023-03-30T07:25:58;8.85;;;3.05;;
25569;SDS011;17955;45.542;9.238;2023-03-30T07:28:36;11.27;;;3.47;;
25569;SDS011;17955;45.542;9.238;2023-03-30T07:31:06;6.75;;;2.78;;
25569;SDS011;17955;45.542;9.238;2023-03-30T07:33:35;7.07;;;2.75;;
25569;SDS011;17955;45.542;9.238;2023-03-30T07:36:03;9.07;;;2.90;;
25569;SDS011;17955;45.542;9.238;2023-03-30T07:38:32;9.60;;;3.08;;
25569;SDS011;17955;45.542;9.238;2023-03-30T07:40:59;6.68;;;3.00;;
25569;SDS011;17955;45.542;9.238;2023-03-30T07:43:28;12.50;;;3.50;;
25569;SDS011;17955;45.542;9.238;2023-03-30T07:45:57;12.55;;;3.58;;
25569;SDS011;17955;45.542;9.238;2023-03-30T07:48:32;6.03;;;3.30;;
25569;SDS011;17955;45.542;9.238;2023-03-30T07:51:00;9.07;;;3.50;;
25569;SDS011;17955;45.542;9.238;2023-03-30T07:53:29;8.43;;;3.63;;
25569;SDS011;17955;45.542;9.238;2023-03-30T07:55:59;7.50;;;2.97;;
25569;SDS011;17955;45.542;9.238;2023-03-30T07:58:35;7.20;;;3.47;;
25569;SDS011;17955;45.542;9.238;2023-03-30T08:01:05;12.90;;;4.22;;
25569;SDS011;17955;45.542;9.238;2023-03-30T08:03:35;7.68;;;3.40;;
25569;SDS011;17955;45.542;9.238;2023-03-30T08:06:04;9.68;;;4.03;;
25569;SDS011;17955;45.542;9.238;2023-03-30T08:08:36;11.20;;;3.67;;
25569;SDS011;17955;45.542;9.238;2023-03-30T08:11:05;6.82;;;3.03;;
25569;SDS011;17955;45.542;9.238;2023-03-30T08:13:35;12.68;;;3.90;;
25569;SDS011;17955;45.542;9.238;2023-03-30T08:16:05;7.28;;;3.42;;
25569;SDS011;17955;45.542;9.238;2023-03-30T08:18:33;8.63;;;3.20;;
25569;SDS011;17955;45.542;9.238;2023-03-30T08:21:01;11.98;;;4.15;;
25569;SDS011;17955;45.542;9.238;2023-03-30T08:23:29;9.60;;;4.13;;
25569;SDS011;17955;45.542;9.238;2023-03-30T08:25:56;11.93;;;3.97;;
25569;SDS011;17955;45.542;9.238;2023-03-30T08:28:23;10.75;;;3.50;;
25569;SDS011;17955;45.542;9.238;2023-03-30T08:30:51;5.65;;;2.75;;
25569;SDS011;17955;45.542;9.238;2023-03-30T08:33:20;8.38;;;3.42;;
25569;SDS011;17955;45.542;9.238;2023-03-30T08:35:48;7.63;;;3.42;;
25569;SDS011;17955;45.542;9.238;2023-03-30T08:38:15;13.85;;;5.45;;
25569;SDS011;17955;45.542;9.238;2023-03-30T08:40:43;10.80;;;3.45;;
25569;SDS011;17955;45.542;9.238;2023-03-30T08:45:53;8.02;;;3.85;;
25569;SDS011;17955;45.542;9.238;2023-03-30T08:48:23;8.93;;;3.97;;
25569;SDS011;17955;45.542;9.238;2023-03-30T08:50:52;9.93;;;4.47;;
25569;SDS011;17955;45.542;9.238;2023-03-30T08:53:20;11.48;;;4.18;;
25569;SDS011;17955;45.542;9.238;2023-03-30T08:55:48;7.30;;;4.13;;
25569;SDS011;17955;45.542;9.238;2023-03-30T08:58:18;10.30;;;4.38;;
25569;SDS011;17955;45.542;9.238;2023-03-30T09:00:49;9.82;;;4.15;;
25569;SDS011;17955;45.542;9.238;2023-03-30T09:03:25;6.45;;;4.00;;
25569;SDS011;17955;45.542;9.238;2023-03-30T09:05:55;8.77;;;4.22;;
25569;SDS011;17955;45.542;9.238;2023-03-30T09:08:25;12.95;;;4.47;;
25569;SDS011;17955;45.542;9.238;2023-03-30T09:10:56;9.30;;;4.22;;
25569;SDS011;17955;45.542;9.238;2023-03-30T09:13:24;11.20;;;4.20;;
25569;SDS011;17955;45.542;9.238;2023-03-30T09:15:53;7.35;;;4.15;;
25569;SDS011;17955;45.542;9.238;2023-03-30T09:18:24;11.38;;;5.00;;
25569;SDS011;17955;45.542;9.238;2023-03-30T09:20:53;14.68;;;5.03;;
25569;SDS011;17955;45.542;9.238;2023-03-30T09:23:20;7.10;;;4.28;;
25569;SDS011;17955;45.542;9.238;2023-03-30T09:25:49;9.63;;;4.90;;
25569;SDS011;17955;45.542;9.238;2023-03-30T09:28:19;9.65;;;4.70;;
25569;SDS011;17955;45.542;9.238;2023-03-30T09:30:49;11.40;;;5.70;;
25569;SDS011;17955;45.542;9.238;2023-03-30T09:33:20;11.63;;;5.95;;
25569;SDS011;17955;45.542;9.238;2023-03-30T09:35:57;10.70;;;6.20;;
25569;SDS011;17955;45.542;9.238;2023-03-30T09:38:26;13.00;;;6.22;;
25569;SDS011;17955;45.542;9.238;2023-03-30T09:40:58;12.70;;;6.75;;
25569;SDS011;17955;45.542;9.238;2023-03-30T09:43:31;12.88;;;6.88;;
25569;SDS011;17955;45.542;9.238;2023-03-30T09:46:00;12.32;;;6.28;;
25569;SDS011;17955;45.542;9.238;2023-03-30T09:48:28;14.23;;;6.70;;
25569;SDS011;17955;45.542;9.238;2023-03-30T09:51:07;12.80;;;6.60;;
25569;SDS011;17955;45.542;9.238;2023-03-30T09:53:39;13.65;;;6.97;;
25569;SDS011;17955;45.542;9.238;2023-03-30T09:56:08;10.20;;;6.35;;
25569;SDS011;17955;45.542;9.238;2023-03-30T09:58:38;14.18;;;6.78;;
25569;SDS011;17955;45.542;9.238;2023-03-30T10:01:06;13.65;;;6.30;;
25569;SDS011;17955;45.542;9.238;2023-03-30T10:03:36;15.82;;;6.75;;
25569;SDS011;17955;45.542;9.238;2023-03-30T10:06:04;13.20;;;7.68;;
25569;SDS011;17955;45.542;9.238;2023-03-30T10:08:35;9.25;;;6.80;;
25569;SDS011;17955;45.542;9.238;2023-03-30T10:11:04;13.05;;;6.85;;
25569;SDS011;17955;45.542;9.238;2023-03-30T10:13:32;15.38;;;7.00;;
25569;SDS011;17955;45.542;9.238;2023-03-30T10:16:03;11.57;;;6.30;;
25569;SDS011;17955;45.542;9.238;2023-03-30T10:18:33;12.15;;;7.13;;
25569;SDS011;17955;45.542;9.238;2023-03-30T10:21:03;15.55;;;7.93;;
25569;SDS011;17955;45.542;9.238;2023-03-30T10:23:31;17.33;;;7.75;;
25569;SDS011;17955;45.542;9.238;2023-03-30T10:26:06;16.08;;;7.32;;
25569;SDS011;17955;45.542;9.238;2023-03-30T10:28:37;17.17;;;8.35;;
25569;SDS011;17955;45.542;9.238;2023-03-30T10:31:06;15.38;;;7.47;;
25569;SDS011;17955;45.542;9.238;2023-03-30T10:33:37;17.65;;;7.93;;
25569;SDS011;17955;45.542;9.238;2023-03-30T10:36:05;15.77;;;8.32;;
25569;SDS011;17955;45.542;9.238;2023-03-30T10:38:32;16.08;;;9.07;;
25569;SDS011;17955;45.542;9.238;2023-03-30T10:41:00;19.10;;;9.45;;
25569;SDS011;17955;45.542;9.238;2023-03-30T10:43:30;19.75;;;8.05;;
25569;SDS011;17955;45.542;9.238;2023-03-30T10:45:58;15.63;;;8.63;;
25569;SDS011;17955;45.542;9.238;2023-03-30T10:48:37;13.23;;;8.20;;
25569;SDS011;17955;45.542;9.238;2023-03-30T10:51:09;12.80;;;8.48;;
25569;SDS011;17955;45.542;9.238;2023-03-30T10:53:43;14.38;;;8.50;;
25569;SDS011;17955;45.542;9.238;2023-03-30T10:56:15;15.30;;;7.93;;
25569;SDS011;17955;45.542;9.238;2023-03-30T10:58:52;15.05;;;7.95;;
25569;SDS011;17955;45.542;9.238;2023-03-30T11:01:24;15.95;;;8.02;;
25569;SDS011;17955;45.542;9.238;2023-03-30T11:03:55;14.75;;;7.80;;
25569;SDS011;17955;45.542;9.238;2023-03-30T11:06:25;15.77;;;7.50;;
25569;SDS011;17955;45.542;9.238;2023-03-30T11:08:53;17.52;;;8.23;;
25569;SDS011;17955;45.542;9.238;2023-03-30T11:11:26;16.50;;;8.25;;
25569;SDS011;17955;45.542;9.238;2023-03-30T11:13:58;17.08;;;7.53;;
25569;SDS011;17955;45.542;9.238;2023-03-30T11:16:29;19.50;;;8.32;;
25569;SDS011;17955;45.542;9.238;2023-03-30T11:18:58;14.60;;;8.20;;
25569;SDS011;17955;45.542;9.238;2023-03-30T11:21:29;14.82;;;8.15;;
25569;SDS011;17955;45.542;9.238;2023-03-30T11:23:59;20.80;;;8.07;;
25569;SDS011;17955;45.542;9.238;2023-03-30T11:26:31;17.40;;;8.65;;
25569;SDS011;17955;45.542;9.238;2023-03-30T11:29:11;14.25;;;8.80;;
25569;SDS011;17955;45.542;9.238;2023-03-30T11:31:46;17.80;;;8.60;;
25569;SDS011;17955;45.542;9.238;2023-03-30T11:34:20;18.33;;;9.43;;
25569;SDS011;17955;45.542;9.238;2023-03-30T11:36:53;13.25;;;7.63;;
25569;SDS011;17955;45.542;9.238;2023-03-30T11:39:22;13.05;;;7.75;;
25569;SDS011;17955;45.542;9.238;2023-03-30T11:41:53;13.68;;;7.72;;
25569;SDS011;17955;45.542;9.238;2023-03-30T11:44:23;15.02;;;7.88;;
25569;SDS011;17955;45.542;9.238;2023-03-30T11:46:52;12.90;;;7.72;;
25569;SDS011;17955;45.542;9.238;2023-03-30T11:49:32;13.88;;;7.20;;
25569;SDS011;17955;45.542;9.238;2023-03-30T11:52:11;20.65;;;7.65;;
25569;SDS011;17955;45.542;9.238;2023-03-30T11:54:43;15.80;;;7.55;;
25569;SDS011;17955;45.542;9.238;2023-03-30T11:57:18;13.25;;;7.25;;
25569;SDS011;17955;45.542;9.238;2023-03-30T11:59:51;12.20;;;6.20;;
25569;SDS011;17955;45.542;9.238;2023-03-30T12:02:30;13.38;;;5.43;;
25569;SDS011;17955;45.542;9.238;2023-03-30T12:05:02;11.77;;;6.03;;
25569;SDS011;17955;45.542;9.238;2023-03-30T12:07:34;12.05;;;5.55;;
25569;SDS011;17955;45.542;9.238;2023-03-30T12:10:04;12.50;;;5.38;;
25569;SDS011;17955;45.542;9.238;2023-03-30T12:12:35;13.23;;;5.43;;
25569;SDS011;17955;45.542;9.238;2023-03-30T12:15:18;17.65;;;7.35;;
25569;SDS011;17955;45.542;9.238;2023-03-30T12:17:51;13.82;;;6.03;;
25569;SDS011;17955;45.542;9.238;2023-03-30T12:20:26;22.38;;;10.43;;
25569;SDS011;17955;45.542;9.238;2023-03-30T12:22:56;11.20;;;5.40;;
25569;SDS011;17955;45.542;9.238;2023-03-30T12:25:27;13.35;;;5.57;;
25569;SDS011;17955;45.542;9.238;2023-03-30T12:27:57;10.70;;;5.63;;
25569;SDS011;17955;45.542;9.238;2023-03-30T12:30:26;14.68;;;6.78;;
25569;SDS011;17955;45.542;9.238;2023-03-30T12:32:58;12.75;;;6.25;;
25569;SDS011;17955;45.542;9.238;2023-03-30T12:38:12;12.40;;;6.05;;
25569;SDS011;17955;45.542;9.238;2023-03-30T12:40:42;12.73;;;5.95;;
25569;SDS011;17955;45.542;9.238;2023-03-30T12:43:13;9.73;;;5.47;;
25569;SDS011;17955;45.542;9.238;2023-03-30T12:45:48;10.45;;;4.80;;
25569;SDS011;17955;45.542;9.238;2023-03-30T12:48:28;12.07;;;5.53;;
25569;SDS011;17955;45.542;9.238;2023-03-30T12:51:01;20.10;;;9.82;;
25569;SDS011;17955;45.542;9.238;2023-03-30T12:53:37;13.93;;;5.05;;
25569;SDS011;17955;45.542;9.238;2023-03-30T12:56:07;15.18;;;5.15;;
25569;SDS011;17955;45.542;9.238;2023-03-30T12:58:42;10.85;;;5.40;;
25569;SDS011;17955;45.542;9.238;2023-03-30T13:01:22;11.90;;;6.00;;
25569;SDS011;17955;45.542;9.238;2023-03-30T13:03:52;9.65;;;5.05;;
25569;SDS011;17955;45.542;9.238;2023-03-30T13:06:22;15.95;;;5.25;;
25569;SDS011;17955;45.542;9.238;2023-03-30T13:08:54;11.77;;;5.18;;
25569;SDS011;17955;45.542;9.238;2023-03-30T13:11:22;12.35;;;5.70;;
25569;SDS011;17955;45.542;9.238;2023-03-30T13:13:51;13.23;;;4.97;;
25569;SDS011;17955;45.542;9.238;2023-03-30T13:19:13;13.88;;;6.63;;
25569;SDS011;17955;45.542;9.238;2023-03-30T13:21:46;8.68;;;4.60;;
25569;SDS011;17955;45.542;9.238;2023-03-30T13:24:23;10.77;;;4.93;;
25569;SDS011;17955;45.542;9.238;2023-03-30T13:26:52;12.70;;;4.53;;
25569;SDS011;17955;45.542;9.238;2023-03-30T13:29:20;12.75;;;5.28;;
25569;SDS011;17955;45.542;9.238;2023-03-30T13:32:02;14.65;;;5.93;;
25569;SDS011;17955;45.542;9.238;2023-03-30T13:34:37;13.40;;;4.78;;
25569;SDS011;17955;45.542;9.238;2023-03-30T13:37:09;9.00;;;4.00;;
25569;SDS011;17955;45.542;9.238;2023-03-30T13:39:41;9.52;;;4.18;;
25569;SDS011;17955;45.542;9.238;2023-03-30T13:42:14;14.55;;;4.68;;
25569;SDS011;17955;45.542;9.238;2023-03-30T13:44:47;8.30;;;3.75;;
25569;SDS011;17955;45.542;9.238;2023-03-30T13:47:22;9.63;;;4.72;;
25569;SDS011;17955;45.542;9.238;2023-03-30T13:49:56;11.80;;;4.30;;
25569;SDS011;17955;45.542;9.238;2023-03-30T13:52:26;14.18;;;5.53;;
25569;SDS011;17955;45.542;9.238;2023-03-30T13:54:53;12.98;;;5.05;;
25569;SDS011;17955;45.542;9.238;2023-03-30T13:57:21;13.75;;;4.47;;
25569;SDS011;17955;45.542;9.238;2023-03-30T13:59:50;9.07;;;4.25;;
25569;SDS011;17955;45.542;9.238;2023-03-30T14:02:18;11.13;;;4.60;;
25569;SDS011;17955;45.542;9.238;2023-03-30T14:04:46;9.95;;;3.92;;
25569;SDS011;17955;45.542;9.238;2023-03-30T14:07:16;15.30;;;4.65;;
25569;SDS011;17955;45.542;9.238;2023-03-30T14:12:26;8.93;;;4.40;;
25569;SDS011;17955;45.542;9.238;2023-03-30T14:14:54;11.07;;;3.88;;
25569;SDS011;17955;45.542;9.238;2023-03-30T14:17:22;12.52;;;3.97;;
25569;SDS011;17955;45.542;9.238;2023-03-30T14:19:52;9.13;;;3.50;;
25569;SDS011;17955;45.542;9.238;2023-03-30T14:22:25;11.25;;;3.78;;
25569;SDS011;17955;45.542;9.238;2023-03-30T14:24:57;11.25;;;3.80;;
25569;SDS011;17955;45.542;9.238;2023-03-30T14:27:30;7.82;;;3.58;;
25569;SDS011;17955;45.542;9.238;2023-03-30T14:29:58;9.88;;;4.30;;
25569;SDS011;17955;45.542;9.238;2023-03-30T14:32:25;14.55;;;3.80;;
25569;SDS011;17955;45.542;9.238;2023-03-30T14:34:53;10.68;;;3.78;;
25569;SDS011;17955;45.542;9.238;2023-03-30T14:37:21;13.02;;;5.13;;
25569;SDS011;17955;45.542;9.238;2023-03-30T14:39:50;9.48;;;4.30;;
25569;SDS011;17955;45.542;9.238;2023-03-30T14:42:19;14.57;;;4.78;;
25569;SDS011;17955;45.542;9.238;2023-03-30T14:44:47;9.25;;;4.30;;
25569;SDS011;17955;45.542;9.238;2023-03-30T14:47:16;11.88;;;4.82;;
25569;SDS011;17955;45.542;9.238;2023-03-30T14:49:44;14.45;;;4.75;;
25569;SDS011;17955;45.542;9.238;2023-03-30T14:52:14;13.23;;;4.80;;
25569;SDS011;17955;45.542;9.238;2023-03-30T14:54:41;13.48;;;6.38;;
25569;SDS011;17955;45.542;9.238;2023-03-30T14:57:13;14.15;;;5.57;;
25569;SDS011;17955;45.542;9.238;2023-03-30T14:59:42;13.90;;;5.40;;
25569;SDS011;17955;45.542;9.238;2023-03-30T15:02:14;16.95;;;5.75;;
25569;SDS011;17955;45.542;9.238;2023-03-30T15:04:43;9.57;;;5.22;;
25569;SDS011;17955;45.542;9.238;2023-03-30T15:07:11;13.27;;;5.50;;
25569;SDS011;17955;45.542;9.238;2023-03-30T15:09:40;12.35;;;5.68;;
25569;SDS011;17955;45.542;9.238;2023-03-30T15:12:10;10.10;;;5.43;;
25569;SDS011;17955;45.542;9.238;2023-03-30T15:14:46;11.48;;;6.22;;
25569;SDS011;17955;45.542;9.238;2023-03-30T15:17:14;11.68;;;5.45;;
25569;SDS011;17955;45.542;9.238;2023-03-30T15:19:42;11.88;;;6.35;;
25569;SDS011;17955;45.542;9.238;2023-03-30T15:22:17;10.82;;;5.72;;
25569;SDS011;17955;45.542;9.238;2023-03-30T15:24:46;13.45;;;5.72;;